createdAt,value
2019-06-07T00:00:45.819Z,11.09
2019-06-07T00:03:26.638Z,11.10
2019-06-07T00:05:46.597Z,11.08
2019-06-07T00:08:24.846Z,11.04
2019-06-07T00:10:47.562Z,11.03
2019-06-07T00:13:19.946Z,11.00
2019-06-07T00:15:48.083Z,10.97
2019-06-07T00:18:25.209Z,10.90
2019-06-07T00:20:48.724Z,10.85
2019-06-07T00:23:22.103Z,10.80
2019-06-07T00:25:49.224Z,10.80
2019-06-07T00:28:20.030Z,10.84
2019-06-07T00:30:51.917Z,10.83
2019-06-07T00:33:24.069Z,10.84
2019-06-07T00:35:51.729Z,10.81
2019-06-07T00:38:21.978Z,10.80
2019-06-07T00:40:51.543Z,10.76
2019-06-07T00:43:28.027Z,10.75
2019-06-07T00:45:52.001Z,10.76
2019-06-07T00:48:31.345Z,10.80
2019-06-07T00:50:52.653Z,10.80
2019-06-07T00:53:31.508Z,10.79
2019-06-07T00:55:53.768Z,10.78
2019-06-07T00:58:27.700Z,10.77
2019-06-07T01:00:55.150Z,10.74
2019-06-07T01:03:25.986Z,10.71
2019-06-07T01:06:01.891Z,10.67
2019-06-07T01:08:31.553Z,10.65
2019-06-07T01:11:00.921Z,10.63
2019-06-07T01:13:30.531Z,10.62
2019-06-07T01:16:03.122Z,10.58
2019-06-07T01:18:40.448Z,10.55
2019-06-07T01:21:04.115Z,10.53
2019-06-07T01:24:04.959Z,10.55
2019-06-07T01:26:04.943Z,10.56
2019-06-07T01:28:34.481Z,10.51
2019-06-07T01:31:04.086Z,10.45
2019-06-07T01:33:50.666Z,10.37
2019-06-07T01:36:17.920Z,10.30
2019-06-07T01:38:47.689Z,10.23
2019-06-07T01:41:19.962Z,10.17
2019-06-07T01:43:52.361Z,10.13
2019-06-07T01:46:25.346Z,10.11
2019-06-07T01:48:56.825Z,10.08
2019-06-07T01:51:27.887Z,10.08
2019-06-07T01:54:41.399Z,10.07
2019-06-07T01:56:29.861Z,10.07
2019-06-07T01:58:59.467Z,10.07
2019-06-07T02:01:34.614Z,10.06
2019-06-07T02:04:00.090Z,10.05
2019-06-07T02:06:32.049Z,10.03
2019-06-07T02:09:01.052Z,10.02
2019-06-07T02:11:32.117Z,9.99
2019-06-07T02:14:06.907Z,9.98
2019-06-07T02:16:36.391Z,9.98
2019-06-07T02:19:05.910Z,9.99
2019-06-07T02:21:35.467Z,9.99
2019-06-07T02:24:05.059Z,9.99
2019-06-07T02:26:34.563Z,9.99
2019-06-07T02:29:05.808Z,10.00
2019-06-07T02:31:39.057Z,10.01
2019-06-07T02:34:06.560Z,10.02
2019-06-07T02:36:41.207Z,10.04
2019-06-07T02:39:07.927Z,10.07
2019-06-07T02:41:39.871Z,10.12
2019-06-07T02:44:08.462Z,10.11
2019-06-07T02:46:46.787Z,10.06
2019-06-07T02:49:09.052Z,10.01
2019-06-07T02:51:41.395Z,10.01
2019-06-07T02:54:09.644Z,9.96
2019-06-07T02:56:55.657Z,9.92
2019-06-07T02:59:10.113Z,9.89
2019-06-07T03:01:42.594Z,9.84
2019-06-07T03:04:11.383Z,9.82
2019-06-07T03:06:44.458Z,9.79
2019-06-07T03:09:13.894Z,9.75
2019-06-07T03:11:45.759Z,9.73
2019-06-07T03:14:18.245Z,9.71
2019-06-07T03:17:07.420Z,9.70
2019-06-07T03:19:39.558Z,9.69
2019-06-07T03:22:09.026Z,9.66
2019-06-07T03:24:42.025Z,9.63
2019-06-07T03:27:33.998Z,9.60
2019-06-07T03:29:41.329Z,9.57
2019-06-07T03:32:10.849Z,9.56
2019-06-07T03:34:43.507Z,9.55
2019-06-07T03:37:11.660Z,9.55
2019-06-07T03:39:41.270Z,9.56
2019-06-07T03:42:11.577Z,9.55
2019-06-07T03:44:41.741Z,9.59
2019-06-07T03:47:11.228Z,9.62
2019-06-07T03:49:42.509Z,9.66
2019-06-07T03:52:12.404Z,9.70
2019-06-07T03:54:41.899Z,9.70
2019-06-07T03:57:11.344Z,9.70
2019-06-07T03:59:41.558Z,9.74
2019-06-07T04:02:11.108Z,9.76
2019-06-07T04:04:40.675Z,9.81
2019-06-07T04:07:10.046Z,9.87
2019-06-07T04:09:42.863Z,9.91
2019-06-07T04:12:11.087Z,9.98
2019-06-07T04:14:42.700Z,10.06
2019-06-07T04:17:11.624Z,10.14
2019-06-07T04:19:43.333Z,10.20
2019-06-07T04:22:12.232Z,10.25
2019-06-07T04:24:42.127Z,10.30
2019-06-07T04:27:11.694Z,10.36
2019-06-07T04:30:05.814Z,10.42
2019-06-07T04:32:17.978Z,10.48
2019-06-07T04:34:53.239Z,10.53
2019-06-07T04:37:25.464Z,10.59
2019-06-07T04:39:56.400Z,10.68
2019-06-07T04:42:25.928Z,10.76
2019-06-07T04:44:55.664Z,10.84
2019-06-07T04:47:26.757Z,10.93
2019-06-07T04:49:57.677Z,11.02
2019-06-07T04:52:27.119Z,11.10
2019-06-07T04:54:56.527Z,11.18
2019-06-07T04:57:26.007Z,11.27
2019-06-07T05:00:34.215Z,11.35
2019-06-07T05:02:26.492Z,11.44
2019-06-07T05:04:55.929Z,11.52
2019-06-07T05:07:26.747Z,11.60
2019-06-07T05:09:56.167Z,11.73
2019-06-07T05:12:25.671Z,11.84
2019-06-07T05:14:55.115Z,11.95
2019-06-07T05:17:26.066Z,12.07
2019-06-07T05:19:55.469Z,12.19
2019-06-07T05:22:25.086Z,12.26
2019-06-07T05:24:54.484Z,12.32
2019-06-07T05:27:23.952Z,12.36
2019-06-07T05:30:24.234Z,12.44
2019-06-07T05:32:24.491Z,12.51
2019-06-07T05:34:54.322Z,12.60
2019-06-07T05:37:24.130Z,12.73
2019-06-07T05:39:53.601Z,12.90
2019-06-07T05:42:23.105Z,13.01
2019-06-07T05:44:52.524Z,13.08
2019-06-07T05:47:21.969Z,13.16
2019-06-07T05:49:51.621Z,13.21
2019-06-07T05:52:21.622Z,13.27
2019-06-07T05:54:58.639Z,13.32
2019-06-07T05:57:28.204Z,13.45
2019-06-07T05:59:57.731Z,13.69
2019-06-07T06:02:27.121Z,13.78
2019-06-07T06:04:56.526Z,13.88
2019-06-07T06:07:25.898Z,13.96
2019-06-07T06:09:55.485Z,14.01
2019-06-07T06:12:35.218Z,14.03
2019-06-07T06:14:56.102Z,14.02
2019-06-07T06:17:25.585Z,14.13
2019-06-07T06:19:55.003Z,14.29
2019-06-07T06:22:24.839Z,14.42
2019-06-07T06:25:29.865Z,14.47
2019-06-07T06:28:03.204Z,14.48
2019-06-07T06:29:56.700Z,14.50
2019-06-07T06:32:53.847Z,14.50
2019-06-07T06:35:00.382Z,14.51
2019-06-07T06:37:29.887Z,14.51
2019-06-07T06:39:59.378Z,14.57
2019-06-07T06:42:28.983Z,14.60
2019-06-07T06:44:58.399Z,14.63
2019-06-07T06:47:27.899Z,14.71
2019-06-07T06:49:57.361Z,15.04
2019-06-07T06:52:27.170Z,15.40
2019-06-07T06:55:00.860Z,15.68
2019-06-07T06:57:27.961Z,15.89
2019-06-07T06:59:57.457Z,16.01
2019-06-07T07:02:26.868Z,16.10
2019-06-07T07:04:56.260Z,16.20
2019-06-07T07:07:27.433Z,16.26
2019-06-07T07:09:59.545Z,16.47
2019-06-07T07:12:31.755Z,16.90
2019-06-07T07:15:01.305Z,17.07
2019-06-07T07:17:47.500Z,17.06
2019-06-07T07:20:02.000Z,17.05
2019-06-07T07:22:31.542Z,17.04
2019-06-07T07:25:01.032Z,17.03
2019-06-07T07:27:30.585Z,17.04
2019-06-07T07:30:34.991Z,17.01
2019-06-07T07:32:32.512Z,16.97
2019-06-07T07:35:02.018Z,17.00
2019-06-07T07:37:31.568Z,17.12
2019-06-07T07:40:21.487Z,17.30
2019-06-07T07:42:33.439Z,17.39
2019-06-07T07:45:03.301Z,17.58
2019-06-07T07:47:32.651Z,17.75
2019-06-07T07:50:02.060Z,17.85
2019-06-07T07:52:31.959Z,18.17
2019-06-07T07:55:01.346Z,18.69
2019-06-07T07:57:30.755Z,18.93
2019-06-07T08:00:36.018Z,19.18
2019-06-07T08:02:32.999Z,19.49
2019-06-07T08:05:25.685Z,19.39
2019-06-07T08:07:33.471Z,19.57
2019-06-07T08:10:04.532Z,19.74
2019-06-07T08:12:55.724Z,19.85
2019-06-07T08:15:06.553Z,19.52
2019-06-07T08:17:36.405Z,19.64
2019-06-07T08:20:07.601Z,19.76
2019-06-07T08:22:37.089Z,20.04
2019-06-07T08:25:08.354Z,20.16
2019-06-07T08:27:37.788Z,20.44
2019-06-07T08:30:46.541Z,20.40
2019-06-07T08:32:42.477Z,20.44
2019-06-07T08:36:01.036Z,20.68
2019-06-07T08:38:15.210Z,21.23
2019-06-07T08:40:17.783Z,21.42
2019-06-07T08:43:04.557Z,22.11
2019-06-07T08:45:19.086Z,21.90
2019-06-07T08:47:56.512Z,21.57
2019-06-07T08:50:20.886Z,21.84
2019-06-07T08:52:56.038Z,22.08
2019-06-07T08:55:22.964Z,22.10
2019-06-07T08:58:01.211Z,22.22
2019-06-07T09:02:58.029Z,21.69
2019-06-07T09:05:26.464Z,21.26
2019-06-07T09:08:21.702Z,21.04
2019-06-07T09:10:27.069Z,20.93
2019-06-07T09:13:00.391Z,21.42
2019-06-07T09:15:27.591Z,21.62
2019-06-07T09:18:35.468Z,21.62
2019-06-07T09:20:43.412Z,21.74
2019-06-07T09:23:17.286Z,21.81
2019-06-07T09:25:56.628Z,21.82
2019-06-07T09:28:20.293Z,21.99
2019-06-07T09:30:47.594Z,22.15
2019-06-07T09:33:17.146Z,22.21
2019-06-07T09:35:46.549Z,22.48
2019-06-07T09:38:25.453Z,22.89
2019-06-07T09:40:47.029Z,23.07
2019-06-07T09:43:59.764Z,23.37
2019-06-07T09:45:47.548Z,23.48
2019-06-07T09:49:01.380Z,23.63
2019-06-07T09:50:48.534Z,23.81
2019-06-07T09:53:22.732Z,24.11
2019-06-07T09:55:49.421Z,24.37
2019-06-07T09:58:50.172Z,24.11
2019-06-07T10:00:50.162Z,24.38
2019-06-07T10:03:22.347Z,24.57
2019-06-07T10:05:50.815Z,24.51
2019-06-07T10:09:26.131Z,24.53
2019-06-07T10:10:51.412Z,24.10
2019-06-07T10:13:21.942Z,23.46
2019-06-07T10:15:53.648Z,23.68
2019-06-07T10:18:23.203Z,24.20
2019-06-07T10:20:52.756Z,24.47
2019-06-07T10:23:22.130Z,24.60
2019-06-07T10:25:51.949Z,24.51
2019-06-07T10:28:24.567Z,24.62
2019-06-07T10:30:54.219Z,24.76
2019-06-07T10:33:23.627Z,24.60
2019-06-07T10:35:53.022Z,23.85
2019-06-07T10:38:22.512Z,23.67
2019-06-07T10:40:52.143Z,24.01
2019-06-07T10:43:21.579Z,24.48
2019-06-07T10:45:51.103Z,24.59
2019-06-07T10:48:20.500Z,24.75
2019-06-07T10:50:50.010Z,24.74
2019-06-07T10:53:19.404Z,25.01
2019-06-07T10:55:49.335Z,25.63
2019-06-07T10:58:18.722Z,26.17
2019-06-07T11:00:48.275Z,26.37
2019-06-07T11:03:17.659Z,26.23
2019-06-07T11:05:47.062Z,26.46
2019-06-07T11:08:16.474Z,26.31
2019-06-07T11:10:45.853Z,26.40
2019-06-07T11:13:15.245Z,26.32
2019-06-07T11:15:44.700Z,26.82
2019-06-07T11:18:14.516Z,27.02
2019-06-07T11:20:44.149Z,27.26
2019-06-07T11:23:14.330Z,27.29
2019-06-07T11:25:43.769Z,27.12
2019-06-07T11:28:14.484Z,27.19
2019-06-07T11:30:44.222Z,27.40
2019-06-07T11:33:16.211Z,27.36
2019-06-07T11:35:44.764Z,27.30
2019-06-07T11:38:14.659Z,27.40
2019-06-07T11:40:44.181Z,27.64
2019-06-07T11:43:14.844Z,27.84
2019-06-07T11:45:44.391Z,28.06
2019-06-07T11:48:13.849Z,28.54
2019-06-07T11:50:43.334Z,28.75
2019-06-07T11:53:12.771Z,28.81
2019-06-07T11:55:42.189Z,28.44
2019-06-07T11:58:15.126Z,28.56
2019-06-07T12:00:42.686Z,27.95
2019-06-07T12:03:13.901Z,27.28
2019-06-07T12:05:43.435Z,26.91
2019-06-07T12:08:14.031Z,26.49
2019-06-07T12:10:43.502Z,26.03
2019-06-07T12:13:12.901Z,26.02
2019-06-07T12:15:42.316Z,26.23
2019-06-07T12:18:13.044Z,26.24
2019-06-07T12:20:42.486Z,26.12
2019-06-07T12:23:12.050Z,26.08
2019-06-07T12:25:41.562Z,26.33
2019-06-07T12:28:11.004Z,26.75
2019-06-07T12:30:40.369Z,26.89
2019-06-07T12:33:11.202Z,26.83
2019-06-07T12:35:40.743Z,26.74
2019-06-07T12:38:10.257Z,27.28
2019-06-07T12:40:39.655Z,27.52
2019-06-07T12:43:09.069Z,27.61
2019-06-07T12:45:44.876Z,27.72
2019-06-07T12:48:12.545Z,27.66
2019-06-07T12:50:42.997Z,28.06
2019-06-07T12:53:13.602Z,28.21
2019-06-07T12:55:43.232Z,27.86
2019-06-07T12:58:13.815Z,27.40
2019-06-07T13:00:43.315Z,27.53
2019-06-07T13:03:14.151Z,28.05
2019-06-07T13:05:43.683Z,28.29
2019-06-07T13:08:13.118Z,28.44
2019-06-07T13:10:42.515Z,28.78
2019-06-07T13:13:11.911Z,28.72
2019-06-07T13:15:41.305Z,28.64
2019-06-07T13:18:14.833Z,28.26
2019-06-07T13:20:42.749Z,27.81
2019-06-07T13:23:12.187Z,27.54
2019-06-07T13:25:46.501Z,27.23
2019-06-07T13:28:12.750Z,27.13
2019-06-07T13:30:42.173Z,27.29
2019-06-07T13:33:11.549Z,27.24
2019-06-07T13:35:41.010Z,27.24
2019-06-07T13:38:13.123Z,26.97
2019-06-07T13:40:42.488Z,26.91
2019-06-07T13:43:11.882Z,27.48
2019-06-07T13:45:41.301Z,28.23
2019-06-07T13:48:12.223Z,28.15
2019-06-07T13:50:41.567Z,27.69
2019-06-07T13:53:10.960Z,27.02
2019-06-07T13:55:40.341Z,26.43
2019-06-07T13:58:09.747Z,26.08
2019-06-07T14:00:39.208Z,25.93
2019-06-07T14:03:11.376Z,25.93
2019-06-07T14:05:40.819Z,25.82
2019-06-07T14:08:10.209Z,25.74
2019-06-07T14:10:39.615Z,25.51
2019-06-07T14:13:09.131Z,25.05
2019-06-07T14:15:38.732Z,24.62
2019-06-07T14:18:08.107Z,24.35
2019-06-07T14:20:38.687Z,24.06
2019-06-07T14:23:09.197Z,23.97
2019-06-07T14:25:38.630Z,24.14
2019-06-07T14:28:11.549Z,24.29
2019-06-07T14:30:39.176Z,24.56
2019-06-07T14:33:09.531Z,24.45
2019-06-07T14:35:38.999Z,24.08
2019-06-07T14:38:08.722Z,23.76
2019-06-07T14:40:38.106Z,23.59
2019-06-07T14:43:07.477Z,23.48
2019-06-07T14:45:36.850Z,23.27
2019-06-07T14:48:06.414Z,23.13
2019-06-07T14:50:35.817Z,22.54
2019-06-07T14:53:05.417Z,22.22
2019-06-07T14:55:35.159Z,21.87
2019-06-07T14:58:04.836Z,21.50
2019-06-07T15:00:44.702Z,21.17
2019-06-07T15:03:14.098Z,20.90
2019-06-07T15:05:44.033Z,20.59
2019-06-07T15:08:13.482Z,20.24
2019-06-07T15:10:42.858Z,19.90
2019-06-07T15:13:12.221Z,19.40
2019-06-07T15:15:41.619Z,18.97
2019-06-07T15:18:10.977Z,18.85
2019-06-07T15:20:40.530Z,18.83
2019-06-07T15:23:09.896Z,18.81
2019-06-07T15:25:39.718Z,18.65
2019-06-07T15:28:09.067Z,18.47
2019-06-07T15:30:38.444Z,18.40
2019-06-07T15:33:07.842Z,18.27
2019-06-07T15:35:38.913Z,18.15
2019-06-07T15:38:08.408Z,18.01
2019-06-07T15:40:39.572Z,17.93
2019-06-07T15:43:09.234Z,17.66
2019-06-07T15:45:39.744Z,17.56
2019-06-07T15:48:09.282Z,17.45
2019-06-07T15:50:38.716Z,17.35
2019-06-07T15:53:08.074Z,17.26
2019-06-07T15:55:43.046Z,17.16
2019-06-07T15:58:09.196Z,17.13
2019-06-07T16:00:40.594Z,17.04
2019-06-07T16:03:09.773Z,17.06
2019-06-07T16:05:40.504Z,17.05
2019-06-07T16:08:10.384Z,17.03
2019-06-07T16:10:40.982Z,17.01
2019-06-07T16:13:10.772Z,17.00
2019-06-07T16:15:41.387Z,16.97
2019-06-07T16:18:11.132Z,16.99
2019-06-07T16:20:41.513Z,16.91
2019-06-07T16:23:11.177Z,16.81
2019-06-07T16:25:40.612Z,16.75
2019-06-07T16:28:10.021Z,16.70
2019-06-07T16:30:40.514Z,16.57
2019-06-07T16:33:10.049Z,16.12
2019-06-07T16:35:39.418Z,15.66
2019-06-07T16:38:08.812Z,15.39
2019-06-07T16:40:38.458Z,15.29
2019-06-07T16:43:16.745Z,15.25
2019-06-07T16:45:38.989Z,15.29
2019-06-07T16:48:08.371Z,15.30
2019-06-07T16:50:38.774Z,15.28
2019-06-07T16:53:08.207Z,15.25
2019-06-07T16:55:38.693Z,15.24
2019-06-07T16:58:08.133Z,15.25
2019-06-07T17:00:38.659Z,15.21
2019-06-07T17:03:08.652Z,15.17
2019-06-07T17:05:39.483Z,15.11
2019-06-07T17:08:09.253Z,15.05
2019-06-07T17:10:40.001Z,15.08
2019-06-07T17:13:09.536Z,15.10
2019-06-07T17:15:38.975Z,15.10
2019-06-07T17:18:08.421Z,15.16
2019-06-07T17:20:38.981Z,15.25
2019-06-07T17:23:08.502Z,15.26
2019-06-07T17:25:39.482Z,15.32
2019-06-07T17:28:09.065Z,15.34
2019-06-07T17:30:39.701Z,15.38
2019-06-07T17:33:09.266Z,15.41
2019-06-07T17:35:40.050Z,15.38
2019-06-07T17:38:09.594Z,15.39
2019-06-07T17:40:39.048Z,15.39
2019-06-07T17:43:08.470Z,15.41
2019-06-07T17:45:37.856Z,15.42
2019-06-07T17:48:07.298Z,15.48
2019-06-07T17:50:37.569Z,15.46
2019-06-07T17:53:07.045Z,15.52
2019-06-07T17:55:36.486Z,15.55
2019-06-07T17:58:06.232Z,15.61
2019-06-07T18:00:44.641Z,15.68
2019-06-07T18:03:13.951Z,15.71
2019-06-07T18:05:45.154Z,15.74
2019-06-07T18:08:15.554Z,15.79
2019-06-07T18:10:45.700Z,15.78
2019-06-07T18:13:15.152Z,15.75
2019-06-07T18:15:52.967Z,15.72
2019-06-07T18:18:19.649Z,15.77
2019-06-07T18:20:49.372Z,15.71
2019-06-07T18:23:18.718Z,15.68
2019-06-07T18:25:50.548Z,15.71
2019-06-07T18:28:19.168Z,15.75
2019-06-07T18:30:48.778Z,15.72
2019-06-07T18:33:18.280Z,15.74
2019-06-07T18:35:48.896Z,15.76
2019-06-07T18:38:18.406Z,15.82
2019-06-07T18:40:49.128Z,15.82
2019-06-07T18:43:18.628Z,15.83
2019-06-07T18:45:49.238Z,15.87
2019-06-07T18:48:18.852Z,15.90
2019-06-07T18:50:48.610Z,15.95
2019-06-07T18:53:18.097Z,15.99
2019-06-07T18:55:47.821Z,16.00
2019-06-07T18:58:17.479Z,16.00
2019-06-07T19:00:47.326Z,16.03
2019-06-07T19:03:16.963Z,16.03
2019-06-07T19:05:46.351Z,16.03
2019-06-07T19:08:15.725Z,16.01
2019-06-07T19:10:45.269Z,15.97
2019-06-07T19:13:14.688Z,15.93
2019-06-07T19:15:44.176Z,15.90
2019-06-07T19:18:13.540Z,15.82
2019-06-07T19:20:42.941Z,15.84
2019-06-07T19:23:12.316Z,15.75
2019-06-07T19:25:41.705Z,15.73
2019-06-07T19:28:11.193Z,15.76
2019-06-07T19:30:40.732Z,15.82
2019-06-07T19:33:10.129Z,15.82
2019-06-07T19:35:39.518Z,15.77
2019-06-07T19:38:09.093Z,15.72
2019-06-07T19:40:38.452Z,15.69
2019-06-07T19:43:07.828Z,15.65
2019-06-07T19:45:37.212Z,15.67
2019-06-07T19:48:06.684Z,15.70
2019-06-07T19:50:36.270Z,15.65
2019-06-07T19:53:05.817Z,15.62
2019-06-07T19:55:35.373Z,15.65
2019-06-07T19:58:04.846Z,15.62
2019-06-07T20:00:34.375Z,15.62
2019-06-07T20:03:04.562Z,15.61
2019-06-07T20:05:34.400Z,15.63
2019-06-07T20:08:04.914Z,15.64
2019-06-07T20:10:34.541Z,15.64
2019-06-07T20:13:05.143Z,15.56
2019-06-07T20:15:34.917Z,15.56
2019-06-07T20:18:05.559Z,15.55
2019-06-07T20:20:35.115Z,15.53
2019-06-07T20:23:05.241Z,15.53
2019-06-07T20:25:34.900Z,15.52
2019-06-07T20:28:05.561Z,15.49
2019-06-07T20:30:35.448Z,15.48
2019-06-07T20:33:06.147Z,15.45
2019-06-07T20:35:35.690Z,15.46
2019-06-07T20:38:05.725Z,15.46
2019-06-07T20:40:35.368Z,15.47
2019-06-07T20:43:05.763Z,15.48
2019-06-07T20:45:35.426Z,15.50
2019-06-07T20:48:06.315Z,15.55
2019-06-07T20:50:36.088Z,15.52
2019-06-07T20:53:07.076Z,15.47
2019-06-07T20:55:36.564Z,15.48
2019-06-07T20:58:07.292Z,15.45
2019-06-07T21:00:36.753Z,15.44
2019-06-07T21:03:07.401Z,15.47
2019-06-07T21:05:36.881Z,15.49
2019-06-07T21:08:10.669Z,15.49
2019-06-07T21:10:37.527Z,15.48
2019-06-07T21:13:08.129Z,15.50
2019-06-07T21:15:48.487Z,15.54
2019-06-07T21:18:16.896Z,15.52
2019-06-07T21:20:40.050Z,15.56
2019-06-07T21:23:09.424Z,15.60
2019-06-07T21:25:38.825Z,15.69
2019-06-07T21:28:09.335Z,15.66
2019-06-07T21:30:38.942Z,15.60
2019-06-07T21:33:09.606Z,15.66
2019-06-07T21:35:39.113Z,15.74
2019-06-07T21:38:09.861Z,15.82
2019-06-07T21:40:39.404Z,15.87
2019-06-07T21:43:08.829Z,15.95
2019-06-07T21:45:38.312Z,15.96
2019-06-07T21:48:08.827Z,16.00
2019-06-07T21:50:39.269Z,15.95
2019-06-07T21:53:08.704Z,15.97
2019-06-07T21:55:38.092Z,15.99
2019-06-07T21:58:09.011Z,15.94
2019-06-07T22:00:53.548Z,15.92
2019-06-07T22:03:24.200Z,15.89
2019-06-07T22:05:53.694Z,15.79
2019-06-07T22:08:23.140Z,15.75
2019-06-07T22:10:52.532Z,15.69
2019-06-07T22:13:22.170Z,15.61
2019-06-07T22:15:51.641Z,15.54
2019-06-07T22:18:21.085Z,15.46
2019-06-07T22:20:50.483Z,15.46
2019-06-07T22:23:19.959Z,15.34
2019-06-07T22:25:49.630Z,15.32
2019-06-07T22:28:18.973Z,15.28
2019-06-07T22:30:48.352Z,15.18
2019-06-07T22:33:18.988Z,15.12
2019-06-07T22:35:48.481Z,15.09
2019-06-07T22:38:18.466Z,15.04
2019-06-07T22:40:47.788Z,15.01
2019-06-07T22:43:18.812Z,15.06
2019-06-07T22:45:48.255Z,15.03
2019-06-07T22:48:17.705Z,14.98
2019-06-07T22:50:47.207Z,14.92
2019-06-07T22:53:17.618Z,14.91
2019-06-07T22:55:48.883Z,14.84
2019-06-07T22:58:18.953Z,14.84
2019-06-07T23:00:48.484Z,14.79
2019-06-07T23:03:19.127Z,14.76
2019-06-07T23:05:48.544Z,14.79
2019-06-07T23:08:19.050Z,14.73
2019-06-07T23:10:48.685Z,14.73
2019-06-07T23:13:19.564Z,14.79
2019-06-07T23:15:49.185Z,14.80
2019-06-07T23:18:19.735Z,14.78
2019-06-07T23:20:49.510Z,14.78
2019-06-07T23:23:19.997Z,14.77
2019-06-07T23:25:49.740Z,14.78
2019-06-07T23:28:20.582Z,14.80
2019-06-07T23:30:50.161Z,14.74
2019-06-07T23:33:22.828Z,14.74
2019-06-07T23:35:52.320Z,14.68
2019-06-07T23:38:21.752Z,14.71
2019-06-07T23:40:51.222Z,14.81
2019-06-07T23:43:21.588Z,14.88
2019-06-07T23:45:51.082Z,14.99
2019-06-07T23:48:21.554Z,14.97
2019-06-07T23:50:51.435Z,14.92
2019-06-07T23:53:29.866Z,14.91
2019-06-07T23:55:59.360Z,14.86
2019-06-07T23:58:31.978Z,14.91
